createdAt,value
2023-03-23T16:00:31.035Z,30.53
2023-03-23T16:03:28.637Z,30.69
2023-03-23T16:06:26.434Z,30.98
2023-03-23T16:09:23.940Z,31.27
2023-03-23T16:12:23.346Z,31.56
2023-03-23T16:15:21.764Z,31.90
2023-03-23T16:18:19.693Z,32.25
2023-03-23T16:21:17.331Z,32.49
2023-03-23T16:24:15.206Z,32.71
2023-03-23T16:27:13.184Z,32.94
2023-03-23T16:30:11.871Z,33.07
2023-03-23T16:33:09.678Z,33.40
2023-03-23T16:36:07.773Z,33.68
2023-03-23T16:39:05.253Z,33.94
2023-03-23T16:42:03.347Z,34.16
2023-03-23T16:45:01.491Z,34.36
2023-03-23T16:48:02.207Z,34.59
2023-03-23T16:50:59.671Z,34.90
2023-03-23T16:53:57.581Z,35.17
2023-03-23T16:56:55.538Z,35.54
2023-03-23T16:59:53.421Z,36.05
2023-03-23T17:02:52.042Z,36.38
2023-03-23T17:05:50.385Z,36.55
2023-03-23T17:08:47.838Z,36.73
2023-03-23T17:11:45.745Z,37.02
2023-03-23T17:14:43.693Z,37.38
2023-03-23T17:17:41.478Z,37.72
2023-03-23T17:20:39.474Z,38.19
2023-03-23T17:23:36.972Z,38.76
2023-03-23T17:26:35.040Z,39.05
2023-03-23T17:29:32.806Z,39.34
2023-03-23T17:32:30.846Z,39.67
2023-03-23T17:35:29.297Z,40.02
2023-03-23T17:38:27.471Z,40.43
2023-03-23T17:41:26.669Z,40.79
2023-03-23T17:44:25.183Z,41.28
2023-03-23T17:47:24.024Z,41.61
2023-03-23T17:50:22.638Z,41.93
2023-03-23T17:53:20.354Z,42.29
2023-03-23T17:56:18.312Z,42.56
2023-03-23T17:59:16.738Z,42.87
2023-03-23T18:02:15.890Z,43.13
2023-03-23T18:05:14.893Z,43.38
2023-03-23T18:08:13.726Z,43.59
2023-03-23T18:11:11.826Z,43.77
2023-03-23T18:14:10.404Z,44.03
2023-03-23T18:17:08.719Z,44.21
2023-03-23T18:20:07.006Z,44.37
2023-03-23T18:23:05.763Z,44.52
2023-03-23T18:26:04.595Z,44.78
2023-03-23T18:29:06.612Z,45.04
2023-03-23T18:32:05.739Z,45.19
2023-03-23T18:35:04.709Z,45.38
2023-03-23T18:38:03.503Z,45.59
2023-03-23T18:41:16.009Z,45.91
2023-03-23T18:44:14.464Z,46.33
2023-03-23T18:47:13.594Z,46.57
2023-03-23T18:50:11.676Z,46.80
2023-03-23T18:53:10.902Z,47.04
2023-03-23T18:56:09.898Z,47.39
2023-03-23T18:59:11.426Z,47.63
2023-03-23T19:02:10.834Z,47.93
2023-03-23T19:05:10.433Z,48.20
2023-03-23T19:08:09.436Z,48.49
2023-03-23T19:11:09.357Z,48.82
2023-03-23T19:14:09.674Z,49.08
2023-03-23T19:17:07.482Z,49.39
2023-03-23T19:20:13.603Z,49.78
2023-03-23T19:23:15.197Z,50.10
2023-03-23T19:26:22.489Z,50.35
2023-03-23T19:29:26.123Z,50.41
2023-03-23T19:32:28.996Z,50.65
2023-03-23T19:35:32.137Z,50.87
2023-03-23T19:38:32.313Z,51.11
2023-03-23T19:41:30.863Z,51.28
2023-03-23T19:44:31.568Z,51.46
2023-03-23T19:47:31.277Z,51.58
2023-03-23T19:50:33.373Z,51.72
2023-03-23T19:53:36.404Z,51.80
2023-03-23T19:56:36.057Z,51.90
2023-03-23T19:59:36.318Z,52.04
2023-03-23T20:02:37.288Z,52.18
2023-03-23T20:05:36.951Z,52.31
2023-03-23T20:08:37.348Z,52.38
2023-03-23T20:11:36.604Z,52.46
2023-03-23T20:14:37.635Z,52.53
2023-03-23T20:17:37.579Z,52.58
2023-03-23T20:20:37.865Z,52.66
2023-03-23T20:23:37.279Z,52.92
2023-03-23T20:26:35.755Z,53.07
2023-03-23T20:29:35.728Z,53.18
2023-03-23T20:32:35.070Z,53.28
2023-03-23T20:35:38.832Z,53.37
2023-03-23T20:38:38.295Z,53.44
2023-03-23T20:41:41.010Z,53.48
2023-03-23T20:44:40.097Z,53.57
2023-03-23T20:47:40.218Z,53.71
2023-03-23T20:50:39.317Z,53.78
2023-03-23T20:53:42.088Z,53.83
2023-03-23T20:56:40.910Z,53.89
2023-03-23T20:59:46.923Z,54.02
2023-03-23T21:02:51.390Z,54.10
2023-03-23T21:05:50.974Z,54.11
2023-03-23T21:08:50.791Z,54.23
2023-03-23T21:11:49.113Z,54.29
2023-03-23T21:14:47.759Z,54.37
2023-03-23T21:17:46.979Z,54.37
2023-03-23T21:20:45.514Z,54.48
2023-03-23T21:23:48.222Z,54.47
2023-03-23T21:26:45.828Z,54.49
2023-03-23T21:29:43.659Z,54.50
2023-03-23T21:32:42.342Z,54.49
2023-03-23T21:35:40.782Z,54.47
2023-03-23T21:38:40.359Z,54.41
2023-03-23T21:41:42.202Z,54.45
2023-03-23T21:44:42.232Z,54.52
2023-03-23T21:47:42.683Z,54.53
2023-03-23T21:50:42.312Z,54.50
2023-03-23T21:53:40.340Z,54.43
2023-03-23T21:56:38.103Z,54.35
2023-03-23T21:59:36.071Z,54.30
2023-03-23T22:02:33.528Z,54.28
2023-03-23T22:05:32.627Z,54.42
2023-03-23T22:08:30.525Z,54.39
2023-03-23T22:11:28.465Z,54.32
2023-03-23T22:14:27.156Z,54.31
2023-03-23T22:17:25.517Z,54.32
2023-03-23T22:20:26.467Z,54.35
2023-03-23T22:23:24.743Z,54.40
2023-03-23T22:26:23.977Z,54.53
2023-03-23T22:29:22.237Z,54.60
2023-03-23T22:32:20.897Z,54.53
2023-03-23T22:35:18.964Z,54.56
2023-03-23T22:38:16.933Z,54.55
2023-03-23T22:41:14.408Z,54.61
2023-03-23T22:44:13.251Z,54.70
2023-03-23T22:47:10.805Z,54.75
2023-03-23T22:50:08.774Z,54.87
2023-03-23T22:53:06.281Z,55.05
2023-03-23T22:56:04.722Z,55.05
2023-03-23T22:59:02.243Z,55.03
2023-03-23T23:02:00.151Z,55.09
2023-03-23T23:04:57.926Z,55.11
2023-03-23T23:07:55.796Z,55.22
2023-03-23T23:10:53.242Z,55.42
2023-03-23T23:13:51.073Z,55.67
2023-03-23T23:16:48.550Z,55.79
2023-03-23T23:19:47.168Z,55.90
2023-03-23T23:22:45.187Z,55.99
2023-03-23T23:25:42.757Z,56.00
2023-03-23T23:28:40.697Z,56.00
2023-03-23T23:31:38.650Z,56.03
2023-03-23T23:34:36.830Z,56.10
2023-03-23T23:37:34.300Z,56.19
2023-03-23T23:40:33.208Z,56.19
2023-03-23T23:43:30.847Z,56.24
2023-03-23T23:46:29.262Z,56.38
2023-03-23T23:49:27.980Z,56.46
2023-03-23T23:52:25.444Z,56.55
2023-03-23T23:55:23.081Z,56.62
2023-03-23T23:58:20.987Z,56.70
